createdAt,value
2022-12-08T00:02:54.855Z,2.80
2022-12-08T00:06:16.567Z,3.10
2022-12-08T00:09:37.924Z,1.80
2022-12-08T00:12:41.719Z,3.80
2022-12-08T00:15:44.499Z,1.70
2022-12-08T00:18:47.348Z,2.30
2022-12-08T00:21:50.516Z,2.30
2022-12-08T00:24:53.313Z,2.40
2022-12-08T00:27:56.113Z,2.50
2022-12-08T00:30:59.522Z,3.40
2022-12-08T00:34:02.290Z,3.40
2022-12-08T00:37:05.091Z,3.60
2022-12-08T00:40:08.635Z,3.30
2022-12-08T00:43:11.439Z,3.20
2022-12-08T00:46:14.244Z,2.90
2022-12-08T00:49:17.335Z,3.00
2022-12-08T00:52:20.352Z,2.30
2022-12-08T00:55:23.348Z,2.40
2022-12-08T00:58:26.099Z,2.40
2022-12-08T01:01:28.950Z,2.80
2022-12-08T01:04:31.908Z,2.90
2022-12-08T01:07:34.749Z,2.80
2022-12-08T01:10:39.670Z,4.30
2022-12-08T01:13:43.038Z,3.40
2022-12-08T01:16:45.941Z,2.70
2022-12-08T01:19:48.796Z,2.30
2022-12-08T01:22:51.555Z,3.70
2022-12-08T01:25:54.312Z,3.10
2022-12-08T01:28:57.099Z,3.80
2022-12-08T01:31:59.868Z,3.20
2022-12-08T01:35:02.631Z,2.90
2022-12-08T01:38:05.404Z,2.80
2022-12-08T01:41:08.148Z,2.30
2022-12-08T01:44:10.963Z,3.20
2022-12-08T01:47:13.669Z,3.70
2022-12-08T01:50:19.018Z,4.30
2022-12-08T01:53:26.539Z,4.50
2022-12-08T01:56:43.301Z,4.40
2022-12-08T01:59:51.743Z,4.30
2022-12-08T02:02:59.677Z,3.80
2022-12-08T02:06:03.785Z,3.90
2022-12-08T02:09:06.630Z,5.60
2022-12-08T02:12:10.356Z,4.50
2022-12-08T02:15:14.307Z,5.20
2022-12-08T02:18:32.405Z,4.40
2022-12-08T02:21:41.765Z,5.30
2022-12-08T02:25:00.309Z,4.10
2022-12-08T02:28:15.006Z,4.10
2022-12-08T02:31:24.071Z,4.10
2022-12-08T02:34:50.187Z,3.50
2022-12-08T02:38:14.976Z,3.80
2022-12-08T02:41:44.352Z,2.00
2022-12-08T02:45:00.228Z,4.10
2022-12-08T02:48:03.067Z,3.90
2022-12-08T02:51:06.448Z,4.00
2022-12-08T02:54:09.813Z,5.30
2022-12-08T02:57:42.434Z,4.10
2022-12-08T03:01:20.923Z,4.50
2022-12-08T03:04:29.855Z,4.60
2022-12-08T03:07:40.902Z,4.10
2022-12-08T03:10:52.493Z,4.40
2022-12-08T03:13:59.605Z,5.00
2022-12-08T03:17:04.043Z,4.50
2022-12-08T03:20:12.108Z,3.50
2022-12-08T03:23:17.565Z,3.10
2022-12-08T03:27:05.066Z,3.20
2022-12-08T03:30:08.691Z,3.30
2022-12-08T03:33:26.990Z,2.10
2022-12-08T03:36:29.736Z,3.40
2022-12-08T03:39:32.565Z,3.80
2022-12-08T03:42:35.775Z,4.70
2022-12-08T03:45:38.531Z,3.80
2022-12-08T03:48:41.513Z,3.90
2022-12-08T03:51:44.321Z,4.90
2022-12-08T03:54:47.252Z,4.20
2022-12-08T03:57:50.060Z,3.80
2022-12-08T04:00:52.795Z,3.60
2022-12-08T04:03:55.554Z,3.60
2022-12-08T04:06:58.365Z,3.30
2022-12-08T04:10:01.240Z,3.80
2022-12-08T04:13:04.380Z,4.00
2022-12-08T04:16:08.446Z,4.10
2022-12-08T04:19:11.264Z,4.20
2022-12-08T04:22:14.030Z,3.90
2022-12-08T04:25:16.976Z,3.90
2022-12-08T04:28:20.745Z,3.70
2022-12-08T04:31:23.540Z,4.10
2022-12-08T04:34:26.508Z,4.50
2022-12-08T04:37:29.479Z,4.30
2022-12-08T04:40:33.601Z,5.50
2022-12-08T04:43:37.088Z,3.80
2022-12-08T04:46:43.341Z,4.20
2022-12-08T04:49:46.652Z,2.80
2022-12-08T04:52:49.430Z,2.30
2022-12-08T04:55:52.574Z,4.60
2022-12-08T04:58:55.318Z,4.30
2022-12-08T05:01:58.105Z,2.70
2022-12-08T05:05:00.958Z,4.10
2022-12-08T05:08:04.370Z,4.20
2022-12-08T05:11:09.791Z,2.50
2022-12-08T05:14:15.473Z,3.50
2022-12-08T05:17:18.904Z,3.00
2022-12-08T05:20:22.088Z,5.70
2022-12-08T05:23:24.849Z,5.90
2022-12-08T05:26:27.644Z,6.10
2022-12-08T05:29:30.427Z,4.00
2022-12-08T05:32:33.181Z,3.60
2022-12-08T05:35:35.954Z,3.80
2022-12-08T05:38:39.695Z,5.70
2022-12-08T05:41:42.619Z,5.00
2022-12-08T05:44:45.377Z,5.40
2022-12-08T05:47:48.175Z,5.20
2022-12-08T05:50:51.982Z,4.80
2022-12-08T05:53:55.627Z,3.70
2022-12-08T05:56:58.441Z,4.90
2022-12-08T06:00:01.418Z,2.80
2022-12-08T06:03:04.474Z,5.10
2022-12-08T06:06:07.401Z,8.40
2022-12-08T06:09:10.490Z,4.60
2022-12-08T06:12:13.207Z,2.20
2022-12-08T06:15:15.969Z,5.10
2022-12-08T06:18:18.691Z,4.40
2022-12-08T06:21:21.513Z,5.50
2022-12-08T06:24:24.295Z,7.90
2022-12-08T06:27:27.070Z,5.80
2022-12-08T06:30:29.809Z,6.40
2022-12-08T06:33:32.563Z,6.30
2022-12-08T06:36:35.348Z,5.40
2022-12-08T06:39:38.126Z,6.10
2022-12-08T06:42:43.800Z,6.20
2022-12-08T06:45:46.616Z,4.80
2022-12-08T06:48:50.757Z,5.20
2022-12-08T06:51:53.777Z,5.30
2022-12-08T06:54:56.533Z,6.70
2022-12-08T06:57:59.523Z,4.30
2022-12-08T07:01:06.540Z,5.50
2022-12-08T07:04:09.749Z,7.20
2022-12-08T07:07:12.635Z,7.10
2022-12-08T07:10:15.389Z,7.60
2022-12-08T07:13:18.196Z,6.20
2022-12-08T07:16:21.288Z,5.00
2022-12-08T07:19:24.159Z,6.90
2022-12-08T07:22:26.965Z,5.60
2022-12-08T07:25:29.731Z,4.30
2022-12-08T07:28:34.207Z,6.40
2022-12-08T07:31:37.195Z,6.20
2022-12-08T07:34:39.919Z,5.60
2022-12-08T07:37:42.992Z,5.40
2022-12-08T07:40:45.746Z,6.50
2022-12-08T07:43:48.749Z,6.60
2022-12-08T07:46:51.528Z,6.10
2022-12-08T07:49:54.246Z,3.90
2022-12-08T07:52:57.033Z,5.30
2022-12-08T07:56:00.151Z,6.50
2022-12-08T07:59:04.257Z,4.00
2022-12-08T08:02:24.444Z,4.90
2022-12-08T08:05:28.680Z,6.40
2022-12-08T08:08:31.953Z,5.30
2022-12-08T08:11:34.786Z,7.10
2022-12-08T08:14:37.564Z,6.00
2022-12-08T08:17:40.560Z,5.00
2022-12-08T08:20:43.403Z,5.60
2022-12-08T08:23:46.182Z,5.50
2022-12-08T08:26:49.087Z,5.60
2022-12-08T08:29:51.885Z,5.20
2022-12-08T08:32:54.648Z,6.50
2022-12-08T08:35:57.708Z,5.70
2022-12-08T08:39:00.467Z,5.80
2022-12-08T08:42:03.764Z,4.50
2022-12-08T08:45:06.986Z,3.90
2022-12-08T08:48:09.760Z,4.60
2022-12-08T08:51:14.422Z,5.90
2022-12-08T08:54:17.135Z,4.90
2022-12-08T08:57:25.299Z,4.50
2022-12-08T09:00:28.772Z,4.90
2022-12-08T09:03:31.915Z,4.20
2022-12-08T09:06:34.719Z,3.60
2022-12-08T09:09:38.531Z,4.90
2022-12-08T09:12:41.335Z,4.50
2022-12-08T09:15:44.187Z,5.30
2022-12-08T09:18:48.399Z,4.20
2022-12-08T09:21:51.214Z,5.00
2022-12-08T09:24:54.033Z,3.40
2022-12-08T09:27:56.799Z,2.70
2022-12-08T09:31:00.299Z,3.60
2022-12-08T09:34:04.928Z,4.70
2022-12-08T09:37:07.809Z,4.50
2022-12-08T09:40:17.216Z,3.60
2022-12-08T09:43:45.257Z,5.40
2022-12-08T09:46:52.116Z,4.50
2022-12-08T09:50:01.239Z,3.30
2022-12-08T09:53:04.029Z,3.90
2022-12-08T09:56:17.205Z,5.70
2022-12-08T09:59:31.224Z,3.20
2022-12-08T10:02:34.397Z,6.40
2022-12-08T10:05:42.927Z,3.60
2022-12-08T10:08:56.006Z,5.30
2022-12-08T10:12:34.024Z,5.00
2022-12-08T10:15:42.177Z,7.10
2022-12-08T10:18:45.852Z,7.10
2022-12-08T10:21:49.318Z,7.40
2022-12-08T10:25:05.497Z,4.90
2022-12-08T10:28:09.584Z,5.40
2022-12-08T10:31:24.445Z,5.80
2022-12-08T10:34:27.290Z,7.40
2022-12-08T10:37:30.152Z,4.10
2022-12-08T10:40:40.692Z,6.30
2022-12-08T10:43:54.191Z,6.70
2022-12-08T10:46:57.132Z,7.10
2022-12-08T10:50:20.621Z,7.60
2022-12-08T10:53:26.134Z,7.20
2022-12-08T10:56:31.311Z,8.20
2022-12-08T10:59:34.228Z,6.90
2022-12-08T11:02:37.408Z,6.60
2022-12-08T11:05:42.103Z,6.60
2022-12-08T11:08:53.033Z,7.90
2022-12-08T11:12:13.718Z,5.20
2022-12-08T11:15:18.055Z,6.40
2022-12-08T11:18:29.823Z,5.60
2022-12-08T11:21:37.547Z,4.70
2022-12-08T11:24:40.289Z,6.10
2022-12-08T11:27:48.563Z,7.30
2022-12-08T11:31:00.731Z,14.70
2022-12-08T11:34:04.218Z,19.20
2022-12-08T11:37:12.928Z,12.50
2022-12-08T11:40:45.025Z,11.80
2022-12-08T11:44:06.410Z,7.50
2022-12-08T11:47:37.352Z,7.30
2022-12-08T11:51:06.383Z,8.10
2022-12-08T11:54:24.213Z,8.20
2022-12-08T11:57:28.673Z,6.30
2022-12-08T12:00:31.359Z,9.60
2022-12-08T12:03:38.228Z,10.40
2022-12-08T12:07:13.557Z,7.50
2022-12-08T12:10:37.141Z,8.70
2022-12-08T12:13:45.633Z,17.30
2022-12-08T12:16:57.937Z,11.60
2022-12-08T12:23:23.139Z,11.30
2022-12-08T12:26:29.570Z,14.40
2022-12-08T12:32:45.619Z,7.90
2022-12-08T12:35:48.804Z,12.60
2022-12-08T12:39:06.715Z,13.10
2022-12-08T12:42:41.610Z,10.80
2022-12-08T12:45:45.829Z,14.10
2022-12-08T12:48:49.560Z,10.60
2022-12-08T12:51:55.877Z,16.00
2022-12-08T12:58:19.846Z,12.00
2022-12-08T13:01:22.633Z,12.90
2022-12-08T13:04:31.774Z,12.60
2022-12-08T13:07:43.794Z,16.20
2022-12-08T13:11:07.142Z,15.20
2022-12-08T13:14:28.038Z,16.90
2022-12-08T13:17:33.833Z,18.20
2022-12-08T13:20:48.268Z,22.20
2022-12-08T13:24:12.902Z,14.60
2022-12-08T13:27:32.112Z,16.10
2022-12-08T13:31:05.966Z,14.20
2022-12-08T13:34:42.461Z,15.50
2022-12-08T13:37:54.541Z,12.40
2022-12-08T13:41:03.167Z,13.30
2022-12-08T13:48:13.809Z,15.30
2022-12-08T13:58:28.475Z,18.90
2022-12-08T14:01:31.403Z,19.40
2022-12-08T14:04:54.383Z,15.60
2022-12-08T14:07:57.224Z,11.50
2022-12-08T14:11:03.361Z,8.20
2022-12-08T14:14:09.076Z,8.90
2022-12-08T14:17:15.540Z,12.90
2022-12-08T14:23:45.262Z,4.80
2022-12-08T14:26:53.268Z,4.20
2022-12-08T14:29:58.591Z,6.10
2022-12-08T14:33:03.503Z,2.50
2022-12-08T14:36:06.705Z,5.10
2022-12-08T14:39:09.570Z,6.00
2022-12-08T14:42:22.779Z,6.30
2022-12-08T14:45:25.503Z,4.30
2022-12-08T14:48:28.218Z,5.60
2022-12-08T14:51:33.342Z,5.50
2022-12-08T14:54:36.500Z,6.30
2022-12-08T14:57:39.679Z,5.50
2022-12-08T15:00:48.025Z,5.80
2022-12-08T15:03:51.790Z,3.20
2022-12-08T15:07:28.981Z,3.50
2022-12-08T15:10:38.061Z,4.30
2022-12-08T15:13:49.807Z,4.80
2022-12-08T15:16:54.319Z,6.20
2022-12-08T15:19:58.905Z,5.20
2022-12-08T15:23:02.472Z,4.00
2022-12-08T15:26:05.971Z,5.00
2022-12-08T15:29:22.430Z,5.30
2022-12-08T15:32:25.243Z,5.00
2022-12-08T15:35:28.523Z,2.20
2022-12-08T15:38:31.485Z,5.00
2022-12-08T15:41:34.267Z,3.20
2022-12-08T15:44:37.299Z,5.40
2022-12-08T15:47:40.652Z,4.40
2022-12-08T15:50:43.685Z,3.00
2022-12-08T15:53:46.426Z,3.20
2022-12-08T15:57:18.409Z,3.60
2022-12-08T16:07:28.440Z,3.00
2022-12-08T16:10:52.524Z,3.80
2022-12-08T16:14:03.140Z,3.30
2022-12-08T16:17:18.154Z,2.70
2022-12-08T16:20:28.177Z,3.60
2022-12-08T16:23:43.657Z,3.40
2022-12-08T16:30:15.931Z,3.50
2022-12-08T16:33:19.426Z,2.80
2022-12-08T16:36:22.201Z,3.00
2022-12-08T16:39:25.033Z,4.00
2022-12-08T16:42:50.304Z,4.50
2022-12-08T16:45:53.314Z,3.10
2022-12-08T16:48:59.193Z,2.90
2022-12-08T16:52:02.040Z,4.10
2022-12-08T16:55:13.533Z,4.20
2022-12-08T16:58:18.450Z,4.10
2022-12-08T17:01:21.307Z,3.60
2022-12-08T17:04:31.451Z,4.60
2022-12-08T17:07:36.036Z,2.70
2022-12-08T17:10:39.516Z,3.60
2022-12-08T17:13:42.500Z,3.60
2022-12-08T17:16:45.894Z,2.60
2022-12-08T17:19:48.741Z,2.80
2022-12-08T17:22:55.494Z,2.40
2022-12-08T17:26:00.332Z,2.60
2022-12-08T17:29:04.466Z,4.70
2022-12-08T17:32:07.384Z,3.70
2022-12-08T17:35:10.826Z,1.60
2022-12-08T17:38:13.564Z,3.70
2022-12-08T17:41:16.337Z,3.70
2022-12-08T17:44:19.867Z,1.80
2022-12-08T17:47:23.116Z,2.40
2022-12-08T17:50:25.919Z,2.90
2022-12-08T17:53:30.656Z,2.10
2022-12-08T17:56:37.016Z,5.90
2022-12-08T17:59:39.966Z,5.20
2022-12-08T18:02:42.833Z,3.00
2022-12-08T18:05:46.091Z,4.90
2022-12-08T18:08:48.882Z,5.00
2022-12-08T18:11:51.764Z,5.90
2022-12-08T18:14:54.719Z,5.00
2022-12-08T18:17:57.566Z,7.20
2022-12-08T18:21:00.435Z,3.80
2022-12-08T18:24:04.380Z,5.30
2022-12-08T18:27:07.127Z,4.10
2022-12-08T18:30:14.473Z,4.70
2022-12-08T18:33:17.255Z,4.50
2022-12-08T18:36:26.310Z,5.40
2022-12-08T18:39:31.644Z,4.40
2022-12-08T18:42:34.497Z,4.20
2022-12-08T18:45:38.996Z,2.40
2022-12-08T18:48:50.351Z,2.10
2022-12-08T18:51:53.272Z,2.90
2022-12-08T18:55:06.203Z,3.60
2022-12-08T18:58:11.021Z,2.60
2022-12-08T19:01:14.902Z,2.20
2022-12-08T19:04:28.425Z,3.30
2022-12-08T19:07:31.979Z,3.70
2022-12-08T19:10:38.127Z,3.30
2022-12-08T19:13:40.893Z,3.90
2022-12-08T19:16:43.678Z,4.50
2022-12-08T19:19:46.587Z,3.30
2022-12-08T19:22:49.456Z,4.80
2022-12-08T19:25:52.226Z,4.10
2022-12-08T19:28:55.699Z,4.00
2022-12-08T19:31:58.986Z,2.70
2022-12-08T19:35:07.229Z,4.00
2022-12-08T19:38:10.045Z,3.30
2022-12-08T19:41:31.682Z,3.10
2022-12-08T19:44:34.431Z,3.70
2022-12-08T19:47:38.206Z,3.90
2022-12-08T19:50:41.509Z,3.30
2022-12-08T19:53:47.566Z,3.10
2022-12-08T19:56:50.865Z,2.00
2022-12-08T19:59:56.435Z,3.20
2022-12-08T20:03:02.156Z,2.00
2022-12-08T20:06:05.073Z,3.20
2022-12-08T20:09:08.285Z,5.00
2022-12-08T20:12:11.121Z,5.40
2022-12-08T20:15:14.945Z,4.80
2022-12-08T20:18:18.110Z,4.30
2022-12-08T20:21:22.205Z,4.20
2022-12-08T20:24:25.098Z,5.90
2022-12-08T20:27:29.173Z,4.70
2022-12-08T20:30:32.157Z,5.40
2022-12-08T20:33:34.940Z,3.70
2022-12-08T20:36:37.745Z,5.60
2022-12-08T20:39:40.518Z,5.20
2022-12-08T20:42:43.363Z,2.70
2022-12-08T20:45:46.242Z,4.10
2022-12-08T20:48:49.170Z,4.30
2022-12-08T20:51:52.094Z,3.80
2022-12-08T20:54:56.020Z,3.60
2022-12-08T20:57:59.119Z,4.70
2022-12-08T21:01:08.923Z,4.70
2022-12-08T21:04:12.916Z,4.60
2022-12-08T21:07:16.061Z,4.80
2022-12-08T21:10:18.876Z,3.40
2022-12-08T21:13:22.153Z,2.90
2022-12-08T21:16:25.182Z,4.50
2022-12-08T21:19:28.313Z,3.90
2022-12-08T21:22:31.240Z,4.80
2022-12-08T21:25:41.091Z,4.20
2022-12-08T21:28:44.429Z,3.80
2022-12-08T21:31:47.446Z,5.00
2022-12-08T21:34:50.381Z,4.70
2022-12-08T21:37:53.265Z,4.00
2022-12-08T21:41:01.330Z,3.90
2022-12-08T21:44:05.481Z,3.10
2022-12-08T21:47:08.529Z,3.50
2022-12-08T21:50:12.756Z,4.40
2022-12-08T21:53:15.957Z,4.60
2022-12-08T21:56:18.719Z,5.70
2022-12-08T21:59:21.605Z,3.50
2022-12-08T22:02:24.639Z,4.20
2022-12-08T22:05:27.711Z,3.60
2022-12-08T22:08:30.844Z,3.70
2022-12-08T22:11:33.728Z,3.50
2022-12-08T22:14:36.575Z,3.20
2022-12-08T22:17:41.728Z,2.30
2022-12-08T22:20:44.876Z,4.00
2022-12-08T22:23:47.870Z,5.00
2022-12-08T22:26:50.640Z,3.00
2022-12-08T22:29:55.236Z,4.30
2022-12-08T22:32:58.219Z,4.90
2022-12-08T22:36:09.836Z,4.00
2022-12-08T22:39:13.685Z,3.20
2022-12-08T22:42:16.646Z,3.40
2022-12-08T22:45:19.516Z,3.60
2022-12-08T22:48:22.506Z,2.50
2022-12-08T22:51:25.327Z,3.00
2022-12-08T22:54:28.130Z,3.20
2022-12-08T22:57:31.018Z,3.90
2022-12-08T23:00:33.937Z,2.50
2022-12-08T23:03:36.781Z,3.00
2022-12-08T23:06:39.563Z,5.90
2022-12-08T23:09:42.406Z,8.20
2022-12-08T23:12:45.452Z,8.60
2022-12-08T23:15:48.327Z,11.00
2022-12-08T23:18:51.463Z,12.30
2022-12-08T23:21:54.261Z,7.90
2022-12-08T23:24:57.452Z,6.80
2022-12-08T23:28:00.356Z,9.50
2022-12-08T23:31:08.390Z,19.80
2022-12-08T23:34:11.628Z,18.30
2022-12-08T23:37:14.397Z,18.40
2022-12-08T23:40:17.159Z,20.00
2022-12-08T23:43:20.144Z,20.50
2022-12-08T23:46:23.614Z,21.70
2022-12-08T23:49:26.605Z,20.30
2022-12-08T23:52:29.540Z,14.20
2022-12-08T23:55:32.549Z,8.20
2022-12-08T23:58:36.166Z,8.30
